カラチ の空港の天気 - METARとTAF

ジンナー国際空港(カラチ) ( OPKC / KHI ) - パキスタン Karachi
飛行場実況気象(Metar)
観測時間06/24 14:25 PKT (06/24 09:25 UTC)
風向・風速西 3m/s
視程6000m
天気現象
全天の4割程度の雲 雲底高度 610m
気温36℃
湿度47%
気圧1002hPa
METAROPKC 240925Z 26006KT 6000 SCT020 36/23 Q1002 NOSIG
過去の天気等 Google飛行場航空写真 Wunderground天気予報

過去48時間のMETAR

飛行場予報(TAF)
発表時間: 6/24 11:30 PKT (6/24 06:30 UTC)
予報対象時間: 24日14時 PKT ~ 24日23時 PKT
風向・風速西南西 5m/s 瞬間風速 10m/s
視程6000m
少しの雲 雲底高度 610m
TAF OPKC 240630Z 2409/2418 24010G20KT 6000 FEW020